Time;durP1;ratioP1;P1;durP2;ratioP2;P2;SDS_P1;SDS_P2;PMS_P1;PMS_P2;Temp;Humidity;BMP_temperature;BMP_pressure;BME280_temperature;BME280_humidity;BME280_pressure;Samples;Min_cycle;Max_cycle;Signal;HPM_P1;HPM_P2
2023/09/06 00:02:22;;;;;;;13.65;7.20;;;14.70;99.90;;;;;;5016087;28;20181;-89
2023/09/06 00:04:49;;;;;;;12.90;6.05;;;14.70;99.90;;;;;;5047841;28;20272;-89
2023/09/06 00:07:17;;;;;;;12.00;6.45;;;14.80;99.90;;;;;;5040577;28;20670;-89
2023/09/06 00:09:45;;;;;;;11.00;5.78;;;14.90;99.90;;;;;;5048481;28;20218;-89
2023/09/06 00:12:12;;;;;;;14.00;6.57;;;15.00;99.90;;;;;;5033776;28;20218;-90
2023/09/06 00:14:40;;;;;;;11.05;5.78;;;15.00;99.90;;;;;;5043387;28;20515;-89
2023/09/06 00:17:08;;;;;;;10.70;6.43;;;15.00;99.90;;;;;;5040847;28;20196;-89
2023/09/06 00:19:37;;;;;;;11.00;5.95;;;15.00;99.90;;;;;;5039935;28;20231;-89
2023/09/06 00:22:05;;;;;;;12.95;7.90;;;15.10;99.90;;;;;;5043772;28;20644;-87
2023/09/06 00:24:32;;;;;;;13.05;7.20;;;15.00;99.90;;;;;;5027545;28;20640;-87
2023/09/06 00:27:03;;;;;;;14.35;7.25;;;15.00;99.90;;;;;;5038720;28;20197;-87
2023/09/06 00:29:32;;;;;;;12.02;7.38;;;15.00;99.90;;;;;;5037921;28;20193;-88
2023/09/06 00:32:00;;;;;;;12.93;7.15;;;15.00;99.90;;;;;;5026440;28;20198;-88
2023/09/06 00:34:28;;;;;;;11.10;6.57;;;15.00;99.90;;;;;;5024260;28;20194;-88
2023/09/06 00:36:56;;;;;;;14.35;7.18;;;15.10;99.90;;;;;;5027662;28;20284;-88
2023/09/06 00:39:27;;;;;;;16.60;7.63;;;15.10;99.90;;;;;;5034430;28;20235;-88
2023/09/06 00:41:55;;;;;;;11.05;6.57;;;15.10;99.90;;;;;;5036573;28;20205;-88
2023/09/06 00:44:23;;;;;;;11.05;7.20;;;15.10;99.90;;;;;;5027250;28;20185;-89
2023/09/06 00:46:51;;;;;;;11.95;6.47;;;15.00;99.90;;;;;;5038201;28;20250;-87
2023/09/06 00:49:18;;;;;;;10.55;5.38;;;15.10;99.90;;;;;;5031184;28;20193;-88
2023/09/06 00:51:46;;;;;;;8.68;5.93;;;15.10;99.90;;;;;;5037118;28;21009;-89
2023/09/06 00:54:14;;;;;;;11.48;7.05;;;15.10;99.90;;;;;;5033762;28;20186;-88
2023/09/06 00:56:41;;;;;;;14.85;7.38;;;15.20;99.90;;;;;;5046195;28;20199;-89
2023/09/06 00:59:12;;;;;;;13.82;6.90;;;15.10;99.90;;;;;;5037410;28;20272;-89
2023/09/06 01:01:40;;;;;;;10.13;5.50;;;15.10;99.90;;;;;;5046159;28;20189;-88
2023/09/06 01:04:08;;;;;;;10.52;5.85;;;15.10;99.90;;;;;;5040001;28;20987;-88
2023/09/06 01:06:39;;;;;;;10.35;6.18;;;15.10;99.90;;;;;;5044455;28;20242;-89
2023/09/06 01:09:07;;;;;;;11.75;6.43;;;15.10;99.90;;;;;;5035627;28;20186;-88
2023/09/06 01:11:37;;;;;;;12.88;7.15;;;15.10;99.90;;;;;;5028704;28;20217;-88
2023/09/06 01:14:05;;;;;;;10.88;6.05;;;15.20;99.90;;;;;;5037529;28;20225;-89
2023/09/06 01:16:39;;;;;;;8.38;6.22;;;15.20;99.90;;;;;;5039729;28;20196;-89
2023/09/06 01:19:11;;;;;;;10.68;5.97;;;15.20;99.90;;;;;;5032229;28;20200;-90
2023/09/06 01:21:47;;;;;;;8.70;5.50;;;15.20;99.90;;;;;;5041607;28;20189;-88
2023/09/06 01:24:16;;;;;;;7.82;4.82;;;15.20;99.90;;;;;;5034030;28;20198;-88
2023/09/06 01:26:44;;;;;;;7.80;5.80;;;15.20;99.90;;;;;;5036802;28;20186;-87
2023/09/06 01:29:12;;;;;;;10.38;6.00;;;15.30;99.90;;;;;;5035088;28;20186;-88
2023/09/06 01:31:40;;;;;;;13.73;6.20;;;15.20;99.90;;;;;;5015866;28;20237;-86
2023/09/06 01:34:08;;;;;;;8.82;5.75;;;15.20;99.90;;;;;;5037823;28;20193;-87
2023/09/06 01:36:36;;;;;;;9.32;6.25;;;15.20;99.90;;;;;;5039500;28;20213;-88
2023/09/06 01:39:06;;;;;;;10.60;6.03;;;15.20;99.90;;;;;;5032192;28;20198;-87
2023/09/06 01:41:34;;;;;;;11.10;6.07;;;15.20;99.90;;;;;;5038694;28;20686;-89
2023/09/06 01:44:01;;;;;;;9.63;5.80;;;15.20;99.90;;;;;;5039883;28;20200;-89
2023/09/06 01:46:30;;;;;;;9.13;5.38;;;15.20;99.90;;;;;;5036024;28;20202;-88
2023/09/06 01:48:59;;;;;;;8.60;5.20;;;15.20;99.90;;;;;;5044044;28;20655;-88
2023/09/06 01:51:26;;;;;;;8.93;5.88;;;15.20;99.90;;;;;;5037916;28;20679;-87
2023/09/06 01:53:55;;;;;;;11.88;6.10;;;15.20;99.90;;;;;;5032138;28;20200;-88
2023/09/06 01:56:23;;;;;;;10.35;5.93;;;15.20;99.90;;;;;;5039688;28;20264;-88
2023/09/06 01:58:50;;;;;;;8.35;5.72;;;15.30;99.90;;;;;;5041650;28;20189;-89
2023/09/06 02:01:18;;;;;;;11.85;5.75;;;15.30;99.90;;;;;;5036058;28;20197;-89
2023/09/06 02:03:46;;;;;;;10.20;5.70;;;15.20;99.90;;;;;;5037663;28;20264;-89
2023/09/06 02:06:15;;;;;;;9.55;5.85;;;15.20;99.90;;;;;;5031986;28;20290;-89
2023/09/06 02:08:42;;;;;;;9.85;6.03;;;15.20;99.90;;;;;;5036187;28;20216;-89
2023/09/06 02:11:10;;;;;;;12.57;6.10;;;15.20;99.90;;;;;;5032538;28;20216;-88
2023/09/06 02:13:37;;;;;;;11.48;6.82;;;15.20;99.90;;;;;;5041261;28;20225;-88
2023/09/06 02:16:06;;;;;;;12.60;6.65;;;15.20;99.90;;;;;;5044584;28;20593;-89
2023/09/06 02:18:34;;;;;;;10.68;5.78;;;15.20;99.90;;;;;;5037617;28;20273;-90
2023/09/06 02:21:02;;;;;;;10.70;5.68;;;15.20;99.90;;;;;;5039923;28;20193;-89
2023/09/06 02:23:29;;;;;;;9.90;5.72;;;15.30;99.90;;;;;;5039646;28;20198;-90
2023/09/06 02:25:57;;;;;;;7.03;5.20;;;15.30;99.90;;;;;;5044808;28;20225;-89
2023/09/06 02:28:25;;;;;;;10.88;6.00;;;15.30;99.90;;;;;;5029125;28;20280;-90
2023/09/06 02:30:53;;;;;;;11.10;6.50;;;15.30;99.90;;;;;;5033863;28;20206;-88
2023/09/06 02:33:20;;;;;;;13.55;6.55;;;15.30;99.90;;;;;;5041703;28;20254;-87
2023/09/06 02:35:49;;;;;;;8.73;5.95;;;15.30;99.90;;;;;;5040982;28;20197;-89
2023/09/06 02:38:17;;;;;;;8.40;6.05;;;15.30;99.90;;;;;;5025589;28;20193;-89
2023/09/06 02:40:45;;;;;;;10.70;5.53;;;15.30;99.90;;;;;;5038648;28;20263;-88
2023/09/06 02:43:13;;;;;;;9.73;5.60;;;15.20;99.90;;;;;;5037236;28;20186;-88
2023/09/06 02:45:49;;;;;;;11.10;5.78;;;15.20;99.90;;;;;;5031220;28;20203;-88
2023/09/06 02:48:18;;;;;;;8.25;5.32;;;15.30;99.90;;;;;;5039698;28;20214;-88
2023/09/06 02:50:46;;;;;;;9.32;6.00;;;15.30;99.90;;;;;;5036626;28;20661;-87
2023/09/06 02:53:19;;;;;;;9.52;5.82;;;15.30;99.90;;;;;;5041993;28;20242;-86
2023/09/06 02:55:53;;;;;;;9.80;5.40;;;15.30;99.90;;;;;;5031363;28;20185;-88
2023/09/06 02:58:23;;;;;;;12.00;5.65;;;15.20;99.90;;;;;;5041552;28;20195;-89
2023/09/06 03:00:57;;;;;;;9.88;5.85;;;15.10;99.90;;;;;;5050143;27;20668;-89
2023/09/06 03:03:26;;;;;;;8.48;5.15;;;15.20;99.90;;;;;;5045231;27;20182;-88
2023/09/06 03:06:03;;;;;;;9.88;5.25;;;15.30;99.90;;;;;;5022169;28;20635;-86
2023/09/06 03:08:32;;;;;;;7.45;5.53;;;15.30;99.90;;;;;;5036424;28;20185;-89
2023/09/06 03:11:00;;;;;;;9.43;5.30;;;15.30;99.90;;;;;;5029444;28;20739;-85
2023/09/06 03:13:31;;;;;;;9.57;4.78;;;15.30;99.90;;;;;;5013612;28;20234;-87
2023/09/06 03:15:59;;;;;;;10.18;5.50;;;15.30;99.90;;;;;;5047398;28;20196;-88
2023/09/06 03:18:30;;;;;;;9.80;5.10;;;15.30;99.90;;;;;;5034788;28;20952;-88
2023/09/06 03:21:04;;;;;;;7.80;5.28;;;15.30;99.90;;;;;;5020836;28;20198;-86
2023/09/06 03:23:33;;;;;;;9.70;5.57;;;15.30;99.90;;;;;;5033821;28;20202;-87
2023/09/06 03:26:05;;;;;;;12.68;5.70;;;15.30;99.90;;;;;;5033545;28;20209;-86
2023/09/06 03:28:41;;;;;;;10.60;5.95;;;15.20;99.90;;;;;;5034463;28;20251;-88
2023/09/06 03:31:15;;;;;;;11.35;5.70;;;15.20;99.90;;;;;;5041679;28;20212;-88
2023/09/06 03:33:44;;;;;;;7.22;5.30;;;15.20;99.90;;;;;;5037053;28;20186;-89
2023/09/06 03:36:11;;;;;;;11.23;4.57;;;15.10;99.90;;;;;;5037169;28;20182;-87
2023/09/06 03:38:39;;;;;;;7.82;5.13;;;15.10;99.90;;;;;;5029071;28;20197;-87
2023/09/06 03:41:07;;;;;;;9.00;4.55;;;15.20;99.90;;;;;;5028422;28;20194;-89
2023/09/06 03:43:37;;;;;;;7.72;4.57;;;15.10;99.90;;;;;;5034432;28;20194;-87
2023/09/06 03:46:07;;;;;;;6.00;4.25;;;15.00;99.90;;;;;;5039360;28;20194;-87
2023/09/06 03:48:35;;;;;;;8.07;4.70;;;15.10;99.90;;;;;;5038645;28;20220;-87
2023/09/06 03:51:04;;;;;;;11.85;5.30;;;15.10;99.90;;;;;;5031809;28;20229;-87
2023/09/06 03:53:33;;;;;;;10.48;5.68;;;15.10;99.90;;;;;;5028287;28;20213;-88
2023/09/06 03:56:01;;;;;;;7.22;4.93;;;15.00;99.90;;;;;;5037616;28;20198;-90
2023/09/06 03:58:36;;;;;;;6.53;3.75;;;15.00;99.90;;;;;;5015977;28;20189;-87
2023/09/06 04:01:04;;;;;;;9.98;5.40;;;15.10;99.90;;;;;;5045470;28;20190;-88
2023/09/06 04:03:37;;;;;;;6.78;4.88;;;15.10;99.90;;;;;;5035704;28;20734;-86
2023/09/06 04:06:07;;;;;;;9.15;5.10;;;15.10;99.90;;;;;;5044629;28;20193;-87
2023/09/06 04:08:36;;;;;;;7.78;5.25;;;15.00;99.90;;;;;;5032214;28;20182;-87
2023/09/06 04:11:04;;;;;;;11.10;5.38;;;15.00;99.90;;;;;;5026608;28;20194;-87
2023/09/06 04:13:33;;;;;;;7.35;5.50;;;15.00;99.90;;;;;;5040882;28;20231;-87
2023/09/06 04:16:00;;;;;;;8.18;5.03;;;15.00;99.90;;;;;;5038546;28;20204;-86
2023/09/06 04:18:32;;;;;;;6.80;4.93;;;15.00;99.90;;;;;;5041679;28;20197;-88
2023/09/06 04:21:00;;;;;;;11.60;5.18;;;14.90;99.90;;;;;;5032417;28;20194;-87
2023/09/06 04:23:28;;;;;;;5.95;4.38;;;15.00;99.90;;;;;;5040068;28;20186;-88
2023/09/06 04:26:00;;;;;;;8.32;4.40;;;15.10;99.90;;;;;;5040198;28;20296;-88
2023/09/06 04:28:30;;;;;;;7.53;4.20;;;15.10;99.90;;;;;;5037247;28;20214;-84
2023/09/06 04:31:00;;;;;;;7.90;4.65;;;15.20;99.90;;;;;;5037123;28;20183;-85
2023/09/06 04:33:33;;;;;;;8.43;4.40;;;15.20;99.90;;;;;;5038158;28;20218;-86
2023/09/06 04:36:07;;;;;;;5.88;4.53;;;15.20;99.90;;;;;;5036503;28;20194;-84
2023/09/06 04:38:35;;;;;;;10.30;5.40;;;15.20;99.90;;;;;;5034304;28;20276;-86
2023/09/06 04:41:03;;;;;;;13.43;5.70;;;15.30;99.90;;;;;;5034785;28;20215;-85
2023/09/06 04:43:42;;;;;;;8.68;5.88;;;15.30;99.90;;;;;;5037793;28;20334;-86
2023/09/06 04:46:10;;;;;;;10.85;5.55;;;15.30;99.90;;;;;;5037728;28;20197;-85
2023/09/06 04:48:44;;;;;;;12.13;6.50;;;15.30;99.90;;;;;;5043610;28;20246;-85
2023/09/06 04:51:14;;;;;;;8.57;5.93;;;15.30;99.90;;;;;;5031215;28;20267;-85
2023/09/06 04:53:43;;;;;;;12.15;5.60;;;15.30;99.90;;;;;;5040520;28;20195;-86
2023/09/06 04:56:13;;;;;;;12.70;6.10;;;15.40;99.90;;;;;;5036021;28;20197;-86
2023/09/06 04:58:46;;;;;;;9.90;6.68;;;15.40;99.90;;;;;;5029354;28;20268;-85
2023/09/06 05:01:14;;;;;;;12.07;6.35;;;15.50;99.90;;;;;;5036875;28;20242;-85
2023/09/06 05:03:42;;;;;;;9.13;5.25;;;15.50;99.90;;;;;;5025194;28;20559;-85
2023/09/06 05:06:11;;;;;;;10.55;6.22;;;15.50;99.90;;;;;;5033502;28;20185;-85
2023/09/06 05:08:39;;;;;;;10.90;6.10;;;15.50;99.90;;;;;;5036193;28;20523;-85
2023/09/06 05:11:15;;;;;;;13.73;5.72;;;15.50;99.90;;;;;;5039774;28;20192;-85
2023/09/06 05:13:46;;;;;;;8.52;5.18;;;15.50;99.90;;;;;;5045009;28;20240;-85
2023/09/06 05:16:14;;;;;;;10.57;6.38;;;15.50;99.90;;;;;;5044982;28;20198;-87
2023/09/06 05:18:43;;;;;;;11.68;5.32;;;15.50;99.90;;;;;;5042098;28;20192;-85
2023/09/06 05:21:12;;;;;;;9.07;4.95;;;15.50;99.90;;;;;;5041854;28;20189;-85
2023/09/06 05:23:40;;;;;;;15.00;5.13;;;15.50;99.90;;;;;;5042717;28;20188;-85
2023/09/06 05:26:10;;;;;;;11.90;5.20;;;15.50;99.90;;;;;;5047204;28;20196;-85
2023/09/06 05:28:42;;;;;;;10.32;4.55;;;15.50;99.90;;;;;;5043918;28;20185;-84
2023/09/06 05:31:10;;;;;;;7.28;4.07;;;15.50;99.90;;;;;;5041921;28;20234;-84
2023/09/06 05:33:41;;;;;;;6.85;4.03;;;15.50;99.90;;;;;;5038590;28;20192;-85
2023/09/06 05:36:10;;;;;;;12.82;3.50;;;15.50;99.90;;;;;;5050546;28;20802;-85
2023/09/06 05:38:38;;;;;;;5.72;3.30;;;15.50;99.90;;;;;;5043439;28;20186;-85
2023/09/06 05:41:05;;;;;;;9.60;3.38;;;15.50;99.90;;;;;;5035494;28;20209;-84
2023/09/06 05:43:39;;;;;;;6.68;3.20;;;15.50;99.90;;;;;;5036773;28;20212;-84
2023/09/06 05:46:07;;;;;;;6.45;3.60;;;15.50;99.90;;;;;;5039432;28;20288;-86
2023/09/06 05:48:57;;;;;;;5.05;3.17;;;15.50;99.90;;;;;;5027381;28;20204;-84
2023/09/06 05:51:27;;;;;;;4.47;2.35;;;15.60;99.90;;;;;;5041914;28;20193;-86
2023/09/06 05:53:56;;;;;;;5.40;2.90;;;15.60;99.90;;;;;;5040590;28;20223;-87
2023/09/06 05:56:24;;;;;;;7.07;3.17;;;15.60;99.90;;;;;;5042750;28;20670;-86
2023/09/06 05:58:52;;;;;;;5.40;2.47;;;15.60;99.90;;;;;;5043234;28;20190;-86
2023/09/06 06:01:21;;;;;;;5.57;2.55;;;15.60;99.90;;;;;;5039142;28;20201;-86
2023/09/06 06:03:49;;;;;;;7.50;3.00;;;15.60;99.90;;;;;;5042728;28;20286;-85
2023/09/06 06:06:18;;;;;;;7.15;3.15;;;15.60;99.90;;;;;;5041311;28;20694;-86
2023/09/06 06:08:45;;;;;;;5.05;2.75;;;15.50;99.90;;;;;;5046434;28;20693;-85
2023/09/06 06:11:13;;;;;;;5.15;2.63;;;15.50;99.90;;;;;;5025897;28;20185;-86
2023/09/06 06:13:40;;;;;;;5.38;2.22;;;15.50;99.90;;;;;;5043018;28;20250;-86
2023/09/06 06:16:14;;;;;;;6.28;2.30;;;15.40;99.90;;;;;;5042035;28;20438;-85
2023/09/06 06:18:42;;;;;;;5.93;2.80;;;15.40;99.90;;;;;;5043694;28;20242;-84
2023/09/06 06:21:11;;;;;;;5.28;2.42;;;15.40;99.90;;;;;;5041151;28;20198;-85
2023/09/06 06:23:38;;;;;;;4.15;2.88;;;15.40;99.90;;;;;;5036810;28;20217;-86
2023/09/06 06:26:06;;;;;;;4.75;2.47;;;15.40;99.90;;;;;;5042020;28;20197;-86
2023/09/06 06:28:34;;;;;;;4.30;2.28;;;15.40;99.90;;;;;;5040039;28;20246;-85
2023/09/06 06:31:02;;;;;;;5.80;1.90;;;15.40;99.90;;;;;;5038278;28;20196;-85
2023/09/06 06:33:30;;;;;;;5.03;1.73;;;15.30;99.90;;;;;;5035157;28;20292;-85
2023/09/06 06:35:58;;;;;;;5.05;1.75;;;15.40;99.90;;;;;;5035570;28;20190;-86
2023/09/06 06:38:25;;;;;;;2.95;1.60;;;15.20;99.90;;;;;;5037349;28;20185;-85
2023/09/06 06:40:53;;;;;;;5.28;1.75;;;15.20;99.90;;;;;;5036783;28;20209;-85
2023/09/06 06:43:21;;;;;;;4.65;1.83;;;15.20;99.90;;;;;;5037441;28;20194;-85
2023/09/06 06:45:55;;;;;;;5.10;2.05;;;15.20;99.90;;;;;;5029812;28;20193;-86
2023/09/06 06:48:22;;;;;;;5.13;1.65;;;15.20;99.90;;;;;;5038882;28;20186;-85
2023/09/06 06:50:50;;;;;;;4.68;1.48;;;15.10;99.90;;;;;;5040294;28;20557;-85
2023/09/06 06:53:18;;;;;;;5.20;1.58;;;15.10;99.90;;;;;;5044092;28;20428;-84
2023/09/06 06:55:45;;;;;;;3.60;1.50;;;15.10;99.90;;;;;;5033493;28;20230;-85
2023/09/06 06:58:14;;;;;;;4.85;1.20;;;15.10;99.90;;;;;;5023613;28;20224;-85
2023/09/06 07:00:41;;;;;;;2.05;1.10;;;15.00;99.90;;;;;;5035902;28;20246;-85
2023/09/06 07:03:09;;;;;;;3.97;1.38;;;14.90;99.90;;;;;;5045647;28;20923;-86
2023/09/06 07:05:37;;;;;;;4.80;1.23;;;14.80;99.90;;;;;;5039129;28;20296;-86
2023/09/06 07:08:05;;;;;;;3.55;1.10;;;14.70;99.90;;;;;;5039393;28;20671;-86
2023/09/06 07:10:33;;;;;;;2.05;1.00;;;14.80;99.90;;;;;;5038302;28;20190;-85
2023/09/06 07:13:00;;;;;;;3.00;1.27;;;14.70;99.90;;;;;;5034199;28;20234;-84
2023/09/06 07:15:28;;;;;;;4.95;1.20;;;14.60;99.90;;;;;;5037466;28;20193;-85
2023/09/06 07:17:55;;;;;;;2.40;1.10;;;14.60;99.90;;;;;;5034079;28;20196;-86
2023/09/06 07:20:23;;;;;;;3.65;1.00;;;14.70;99.90;;;;;;5041351;28;20189;-85
2023/09/06 07:22:51;;;;;;;5.22;0.90;;;14.70;99.90;;;;;;5041446;28;20722;-85
2023/09/06 07:25:19;;;;;;;5.55;1.25;;;14.60;99.90;;;;;;5037173;28;20204;-86
2023/09/06 07:27:46;;;;;;;7.13;1.30;;;14.60;99.90;;;;;;5032485;28;20190;-83
2023/09/06 07:30:14;;;;;;;3.45;1.20;;;14.60;99.90;;;;;;5034472;28;20540;-86
2023/09/06 07:32:41;;;;;;;4.75;1.05;;;14.60;99.90;;;;;;5035849;28;20636;-85
2023/09/06 07:35:09;;;;;;;6.20;1.27;;;14.60;99.90;;;;;;5036893;28;20200;-84
2023/09/06 07:37:36;;;;;;;6.18;1.13;;;14.50;99.90;;;;;;5036635;28;20785;-85
2023/09/06 07:40:06;;;;;;;3.33;1.02;;;14.60;99.90;;;;;;5034901;28;20199;-85
2023/09/06 07:42:37;;;;;;;3.58;1.33;;;14.60;99.90;;;;;;5034657;28;20580;-85
2023/09/06 07:45:10;;;;;;;4.22;1.17;;;14.60;99.90;;;;;;5032317;28;20190;-86
2023/09/06 07:47:37;;;;;;;3.00;1.15;;;14.70;99.90;;;;;;5036490;28;20190;-85
2023/09/06 07:50:06;;;;;;;3.00;0.90;;;14.70;99.90;;;;;;5030863;28;20201;-86
2023/09/06 07:52:34;;;;;;;4.25;1.27;;;14.70;99.90;;;;;;5035217;28;20265;-85
2023/09/06 07:55:01;;;;;;;6.70;1.00;;;14.80;99.90;;;;;;5039367;28;20241;-85
2023/09/06 07:57:29;;;;;;;3.83;0.93;;;14.90;99.90;;;;;;5036744;28;20270;-85
2023/09/06 07:59:56;;;;;;;4.45;1.05;;;15.00;99.90;;;;;;5037010;28;20679;-84
2023/09/06 08:02:24;;;;;;;3.78;0.80;;;15.00;99.90;;;;;;5042844;28;20181;-85
2023/09/06 08:04:51;;;;;;;3.35;0.95;;;15.00;99.90;;;;;;5036210;28;20209;-85
2023/09/06 08:07:21;;;;;;;4.07;1.20;;;15.20;99.90;;;;;;5036127;28;20526;-85
2023/09/06 08:09:49;;;;;;;6.60;1.30;;;15.20;99.90;;;;;;5028932;28;20250;-84
2023/09/06 08:12:16;;;;;;;2.47;1.02;;;15.20;99.90;;;;;;5029909;28;20190;-85
2023/09/06 08:14:44;;;;;;;4.47;1.00;;;15.20;99.90;;;;;;5041005;28;20193;-86
2023/09/06 08:17:12;;;;;;;3.88;0.80;;;15.10;99.90;;;;;;5036838;28;20268;-85
2023/09/06 08:19:40;;;;;;;3.53;1.10;;;15.20;99.90;;;;;;5037026;28;20208;-85
2023/09/06 08:22:07;;;;;;;4.65;1.02;;;15.30;99.90;;;;;;5035915;28;20566;-85
2023/09/06 08:24:35;;;;;;;4.57;1.02;;;15.30;99.90;;;;;;5037189;28;20692;-84
2023/09/06 08:27:05;;;;;;;5.10;1.20;;;15.30;99.90;;;;;;5036386;28;20682;-84
2023/09/06 08:29:32;;;;;;;3.92;0.95;;;15.40;99.90;;;;;;5034234;28;20273;-85
2023/09/06 08:32:00;;;;;;;4.10;1.27;;;15.40;99.90;;;;;;5031780;28;20690;-84
2023/09/06 08:34:28;;;;;;;3.95;0.93;;;15.40;99.90;;;;;;5035858;28;20214;-85
2023/09/06 08:36:56;;;;;;;6.55;1.20;;;15.40;99.90;;;;;;5031046;28;20193;-85
2023/09/06 08:39:24;;;;;;;3.20;1.00;;;15.40;99.90;;;;;;5027551;28;20192;-86
2023/09/06 08:41:53;;;;;;;3.47;1.35;;;15.50;99.90;;;;;;5030466;28;20186;-84
2023/09/06 08:44:24;;;;;;;3.67;0.95;;;15.50;99.90;;;;;;5031365;28;20190;-85
2023/09/06 08:46:54;;;;;;;3.78;0.95;;;15.60;99.90;;;;;;5034423;28;20189;-85
2023/09/06 08:49:23;;;;;;;3.45;1.05;;;15.70;99.90;;;;;;5041718;28;20210;-84
2023/09/06 08:51:51;;;;;;;4.68;1.00;;;15.60;99.90;;;;;;5039947;28;20696;-84
2023/09/06 08:54:19;;;;;;;3.92;0.90;;;15.80;99.90;;;;;;5043409;28;20706;-85
2023/09/06 08:56:47;;;;;;;4.22;1.05;;;15.80;99.90;;;;;;5040515;28;20199;-85
2023/09/06 08:59:14;;;;;;;2.97;1.17;;;15.90;99.90;;;;;;5036525;28;20211;-84
2023/09/06 09:01:42;;;;;;;4.63;0.90;;;15.80;99.90;;;;;;5042330;28;20187;-85
2023/09/06 09:04:10;;;;;;;10.30;1.42;;;15.90;99.90;;;;;;5041259;28;20217;-85
2023/09/06 09:06:44;;;;;;;2.92;0.90;;;16.00;99.90;;;;;;5036634;28;20200;-86
2023/09/06 09:09:16;;;;;;;3.75;0.77;;;16.10;99.90;;;;;;5033752;28;20200;-85
2023/09/06 09:11:45;;;;;;;1.52;0.70;;;15.90;99.90;;;;;;5037331;28;20185;-85
2023/09/06 09:14:21;;;;;;;6.22;0.98;;;15.90;99.90;;;;;;5042481;28;20244;-84
2023/09/06 09:16:56;;;;;;;4.60;0.80;;;16.10;99.90;;;;;;5038952;28;20203;-85
2023/09/06 09:19:25;;;;;;;2.83;0.77;;;16.20;99.90;;;;;;5035196;28;20229;-86
2023/09/06 09:21:56;;;;;;;3.42;0.82;;;16.40;99.90;;;;;;5030773;28;20181;-86
2023/09/06 09:24:29;;;;;;;3.70;1.10;;;16.30;99.90;;;;;;5040079;28;20209;-86
2023/09/06 09:26:57;;;;;;;13.50;1.50;;;16.30;99.90;;;;;;5031926;28;20669;-86
2023/09/06 09:29:25;;;;;;;2.65;0.95;;;16.30;99.90;;;;;;5036015;28;20198;-85
2023/09/06 09:31:53;;;;;;;3.50;1.05;;;16.40;99.90;;;;;;5041018;28;20210;-87
2023/09/06 09:34:21;;;;;;;3.42;0.95;;;16.40;99.90;;;;;;5035345;28;20202;-86
2023/09/06 09:36:53;;;;;;;3.03;0.75;;;16.40;99.90;;;;;;5040724;28;20205;-87
2023/09/06 09:39:27;;;;;;;4.05;1.05;;;16.40;99.90;;;;;;5037634;27;20192;-85
2023/09/06 09:41:59;;;;;;;5.25;1.00;;;16.40;99.90;;;;;;5035266;28;20186;-86
2023/09/06 09:44:27;;;;;;;3.00;0.73;;;16.50;99.90;;;;;;5035352;28;20273;-87
2023/09/06 09:46:57;;;;;;;8.13;1.08;;;16.60;99.90;;;;;;5035655;28;20182;-86
2023/09/06 09:49:26;;;;;;;6.07;1.10;;;16.50;99.90;;;;;;5028576;28;20262;-86
2023/09/06 09:51:55;;;;;;;9.43;1.15;;;16.60;99.90;;;;;;5037802;28;20212;-86
2023/09/06 09:54:25;;;;;;;3.95;0.85;;;16.70;99.90;;;;;;5042346;28;20194;-87
2023/09/06 09:57:07;;;;;;;3.40;0.82;;;16.80;99.90;;;;;;5037512;28;20193;-86
2023/09/06 09:59:43;;;;;;;5.05;0.93;;;17.00;99.90;;;;;;5043354;28;20179;-87
2023/09/06 10:02:15;;;;;;;4.60;0.65;;;17.00;99.90;;;;;;5039746;28;20249;-86
2023/09/06 10:04:55;;;;;;;3.63;0.80;;;17.00;99.90;;;;;;5031879;28;20186;-86
2023/09/06 10:07:24;;;;;;;4.50;1.38;;;17.10;99.90;;;;;;5030878;28;20676;-86
2023/09/06 10:10:12;;;;;;;5.45;1.00;;;17.00;99.90;;;;;;5040629;28;20177;-86
2023/09/06 10:12:49;;;;;;;10.38;1.20;;;17.20;99.90;;;;;;5038020;28;20725;-84
2023/09/06 10:15:23;;;;;;;4.93;0.85;;;17.20;99.90;;;;;;5037613;28;20200;-86
2023/09/06 10:17:54;;;;;;;3.45;0.77;;;17.30;99.90;;;;;;5038437;28;20194;-86
2023/09/06 10:20:23;;;;;;;7.00;1.23;;;17.30;99.90;;;;;;5036326;28;20186;-86
2023/09/06 10:22:54;;;;;;;5.07;1.05;;;17.40;99.90;;;;;;5040833;28;20196;-86
2023/09/06 10:25:22;;;;;;;5.65;1.13;;;17.50;99.90;;;;;;5038220;28;20269;-85
2023/09/06 10:27:53;;;;;;;9.98;1.05;;;17.50;99.90;;;;;;5030063;28;20653;-85
2023/09/06 10:30:34;;;;;;;3.38;0.85;;;17.50;99.90;;;;;;5039432;28;20207;-84
2023/09/06 10:33:02;;;;;;;2.75;0.80;;;17.60;99.90;;;;;;5040846;28;20212;-85
2023/09/06 10:35:31;;;;;;;2.78;0.80;;;17.60;99.90;;;;;;5043212;28;20190;-85
2023/09/06 10:38:15;;;;;;;4.05;0.80;;;17.70;99.90;;;;;;5039662;28;20583;-85
2023/09/06 10:40:51;;;;;;;7.05;1.25;;;17.80;99.90;;;;;;5033394;28;20210;-87
2023/09/06 10:43:42;;;;;;;2.55;0.90;;;17.90;99.90;;;;;;5041502;27;20197;-87
2023/09/06 10:46:09;;;;;;;3.38;0.88;;;18.00;99.90;;;;;;5033140;28;20677;-87
2023/09/06 10:48:37;;;;;;;5.65;0.95;;;17.90;99.90;;;;;;5043988;28;20193;-88
2023/09/06 10:51:11;;;;;;;1.98;0.82;;;17.80;99.90;;;;;;5038289;28;20208;-84
2023/09/06 10:53:40;;;;;;;2.83;0.90;;;17.80;99.90;;;;;;5033342;27;20284;-84
2023/09/06 10:56:07;;;;;;;5.35;0.90;;;18.00;99.90;;;;;;5039638;28;20186;-84
2023/09/06 10:58:37;;;;;;;4.15;0.90;;;18.20;99.90;;;;;;5031076;28;20178;-84
2023/09/06 11:01:13;;;;;;;3.70;0.77;;;18.20;99.90;;;;;;5034976;28;20186;-82
2023/09/06 11:03:48;;;;;;;4.00;1.10;;;18.40;99.90;;;;;;5041870;28;20674;-83
2023/09/06 11:06:18;;;;;;;3.53;0.88;;;18.50;99.90;;;;;;5035522;28;20193;-83
2023/09/06 11:08:47;;;;;;;5.40;0.80;;;18.50;99.90;;;;;;5039641;28;20197;-83
2023/09/06 11:11:16;;;;;;;2.53;0.80;;;18.30;99.90;;;;;;5033591;28;20189;-83
2023/09/06 11:13:44;;;;;;;3.72;0.80;;;18.30;99.90;;;;;;5037103;28;20228;-83
2023/09/06 11:16:14;;;;;;;2.03;0.88;;;18.60;99.90;;;;;;5035615;28;20193;-83
2023/09/06 11:18:45;;;;;;;1.60;0.65;;;18.40;99.90;;;;;;5040637;28;20850;-82
2023/09/06 11:21:17;;;;;;;2.63;0.68;;;18.60;99.90;;;;;;5041877;28;20185;-83
2023/09/06 11:23:50;;;;;;;2.25;0.50;;;18.70;99.90;;;;;;5039777;28;20194;-84
2023/09/06 11:26:19;;;;;;;2.33;0.85;;;18.90;99.90;;;;;;5035056;28;20198;-84
2023/09/06 11:28:50;;;;;;;1.90;0.77;;;19.00;99.90;;;;;;5039867;28;20605;-83
2023/09/06 11:31:29;;;;;;;2.60;0.70;;;18.70;99.90;;;;;;5037038;28;20693;-84
2023/09/06 11:34:04;;;;;;;1.45;0.60;;;18.80;99.90;;;;;;5037775;28;20198;-83
2023/09/06 11:36:36;;;;;;;3.42;0.75;;;19.00;99.90;;;;;;5038627;28;20263;-83
2023/09/06 11:39:29;;;;;;;2.38;0.80;;;18.90;99.90;;;;;;5036541;28;20656;-83
2023/09/06 11:41:53;;;;;;;3.88;1.10;;;19.00;99.90;;;;;;5037457;27;20194;-83
2023/09/06 11:44:23;;;;;;;4.47;0.80;;;19.10;99.90;;;;;;5038901;28;20238;-83
2023/09/06 11:46:53;;;;;;;1.85;0.77;;;19.20;99.90;;;;;;5029974;28;20601;-83
2023/09/06 11:49:25;;;;;;;3.00;0.80;;;19.20;99.90;;;;;;5036194;28;20555;-83
2023/09/06 11:51:54;;;;;;;3.40;0.88;;;19.30;99.90;;;;;;5029852;28;20190;-83
2023/09/06 11:54:26;;;;;;;2.53;0.77;;;19.40;99.90;;;;;;5037476;28;20600;-83
2023/09/06 11:56:55;;;;;;;4.68;0.98;;;19.20;99.90;;;;;;5034560;28;20242;-82
2023/09/06 11:59:24;;;;;;;2.55;0.77;;;19.20;99.90;;;;;;5039718;28;20264;-83
2023/09/06 12:02:01;;;;;;;4.97;0.70;;;19.40;99.90;;;;;;5039956;28;20185;-81
2023/09/06 12:04:31;;;;;;;2.30;0.73;;;19.60;99.90;;;;;;5037805;28;20193;-82
2023/09/06 12:07:00;;;;;;;2.13;0.80;;;20.00;99.90;;;;;;5037203;28;20246;-83
2023/09/06 12:09:28;;;;;;;0.98;0.68;;;19.90;99.90;;;;;;5035288;28;20301;-83
2023/09/06 12:11:55;;;;;;;4.22;1.02;;;20.10;99.90;;;;;;5035332;28;20194;-83
2023/09/06 12:14:23;;;;;;;5.03;0.68;;;20.00;99.90;;;;;;5035226;28;20332;-83
2023/09/06 12:16:50;;;;;;;3.55;1.00;;;19.90;99.90;;;;;;5036045;28;20190;-83
2023/09/06 12:19:18;;;;;;;3.45;0.93;;;20.00;99.90;;;;;;5035294;28;20265;-84
2023/09/06 12:21:45;;;;;;;2.83;1.10;;;20.00;99.90;;;;;;5036973;28;20644;-82
2023/09/06 12:24:13;;;;;;;2.10;0.80;;;20.30;99.90;;;;;;5033899;28;20586;-83
2023/09/06 12:26:40;;;;;;;4.70;0.82;;;20.20;99.90;;;;;;5037792;28;20187;-84
2023/09/06 12:29:08;;;;;;;5.70;1.00;;;20.30;99.90;;;;;;5035181;28;20269;-84
2023/09/06 12:31:35;;;;;;;5.15;1.10;;;20.20;99.90;;;;;;5030629;28;20201;-84
2023/09/06 12:34:03;;;;;;;5.03;1.05;;;20.30;99.90;;;;;;5033173;28;20202;-83
2023/09/06 12:36:31;;;;;;;2.28;1.00;;;20.20;99.90;;;;;;5034435;28;20186;-83
2023/09/06 12:38:58;;;;;;;1.30;0.60;;;20.10;99.90;;;;;;5032673;28;20194;-83
2023/09/06 12:41:26;;;;;;;3.40;0.93;;;19.90;99.90;;;;;;5037289;28;20193;-84
2023/09/06 12:43:53;;;;;;;3.13;0.80;;;19.80;99.90;;;;;;5038514;28;20185;-83
2023/09/06 12:46:21;;;;;;;4.07;0.88;;;20.20;99.90;;;;;;5034696;28;20194;-82
2023/09/06 12:48:49;;;;;;;3.70;0.90;;;20.00;99.90;;;;;;5039241;28;20268;-84
2023/09/06 12:51:17;;;;;;;1.85;0.70;;;20.10;99.90;;;;;;5035059;28;20192;-83
2023/09/06 12:53:44;;;;;;;7.70;1.23;;;20.30;99.90;;;;;;5031938;27;20218;-83
2023/09/06 12:56:12;;;;;;;5.47;1.13;;;20.40;99.90;;;;;;5034985;28;20675;-85
2023/09/06 12:58:43;;;;;;;5.45;0.70;;;20.40;99.90;;;;;;5033666;28;20198;-84